Time;durP1;ratioP1;P1;durP2;ratioP2;P2;SDS_P1;SDS_P2;PMS_P1;PMS_P2;Temp;Humidity;BMP_temperature;BMP_pressure;BME280_temperature;BME280_humidity;BME280_pressure;Samples;Min_cycle;Max_cycle;Signal;HPM_P1;HPM_P2
2022/06/28 00:01:26;;;;;;;1.63;1.10;;;15.90;99.90;;;;;;5076255;28;20447;-88
2022/06/28 00:03:53;;;;;;;1.43;1.33;;;;;;;;;;5076407;28;20456;-87
2022/06/28 00:06:20;;;;;;;1.83;1.50;;;;;;;;;;5076373;28;20446;-87
2022/06/28 00:08:47;;;;;;;2.30;1.73;;;;;;;;;;5075119;28;20466;-88
2022/06/28 00:11:14;;;;;;;4.07;1.60;;;;;;;;;;5076234;28;20446;-87
2022/06/28 00:13:41;;;;;;;1.80;1.40;;;;;;;;;;5076008;28;20449;-87
2022/06/28 00:16:09;;;;;;;1.30;1.20;;;;;;;;;;5076198;28;20461;-87
2022/06/28 00:18:40;;;;;;;1.57;1.47;;;16.10;99.90;;;;;;5076273;28;20450;-88
2022/06/28 00:21:07;;;;;;;2.37;1.40;;;16.20;99.90;;;;;;5076224;28;20941;-89
2022/06/28 00:23:35;;;;;;;2.50;1.33;;;;;;;;;;5074962;28;20493;-88
2022/06/28 00:26:02;;;;;;;1.60;1.30;;;;;;;;;;5076020;28;20446;-88
2022/06/28 00:28:29;;;;;;;1.13;1.03;;;;;;;;;;5075886;28;20461;-88
2022/06/28 00:30:56;;;;;;;1.13;0.97;;;;;;;;;;5075996;28;20937;-87
2022/06/28 00:33:24;;;;;;;1.43;1.33;;;;;;;;;;5075846;28;20445;-87
2022/06/28 00:35:52;;;;;;;1.93;1.10;;;16.10;99.90;;;;;;5075928;28;20442;-88
2022/06/28 00:38:19;;;;;;;1.77;1.67;;;;;;;;;;5073449;28;20438;-87
2022/06/28 00:40:48;;;;;;;2.23;1.50;;;16.10;99.90;;;;;;5075683;28;20941;-88
2022/06/28 00:43:16;;;;;;;2.13;1.57;;;16.10;99.90;;;;;;5070981;28;20493;-89
2022/06/28 00:45:44;;;;;;;1.50;1.30;;;;;;;;;;5075559;28;20449;-87
2022/06/28 00:48:12;;;;;;;1.33;1.23;;;16.00;99.90;;;;;;5072907;28;20453;-88
2022/06/28 00:50:40;;;;;;;2.37;1.40;;;;;;;;;;5073117;28;20457;-88
2022/06/28 00:53:10;;;;;;;1.30;1.17;;;15.90;99.90;;;;;;5075429;28;20814;-87
2022/06/28 00:55:38;;;;;;;1.33;1.23;;;;;;;;;;5075584;28;20446;-87
2022/06/28 00:58:05;;;;;;;1.60;1.50;;;15.80;99.90;;;;;;5075384;28;20815;-86
2022/06/28 01:00:37;;;;;;;1.50;1.40;;;15.70;99.90;;;;;;5072343;28;20851;-88
2022/06/28 01:03:04;;;;;;;1.40;1.30;;;;;;;;;;5075240;28;20492;-87
2022/06/28 01:05:32;;;;;;;2.60;1.60;;;;;;;;;;5075270;28;20453;-87
2022/06/28 01:08:00;;;;;;;1.40;1.30;;;15.60;99.90;;;;;;5073913;28;20466;-87
2022/06/28 01:10:28;;;;;;;1.33;1.23;;;15.60;99.90;;;;;;5069946;28;20458;-87
2022/06/28 01:12:55;;;;;;;1.70;1.60;;;;;;;;;;5067409;28;20445;-87
2022/06/28 01:15:23;;;;;;;1.57;1.47;;;;;;;;;;5075211;28;20933;-88
2022/06/28 01:17:50;;;;;;;3.50;1.70;;;;;;;;;;5070814;28;20472;-88
2022/06/28 01:20:17;;;;;;;1.70;1.60;;;;;;;;;;5071893;28;20442;-88
2022/06/28 01:22:46;;;;;;;4.60;1.60;;;15.50;99.90;;;;;;5071476;28;20485;-87
2022/06/28 01:25:13;;;;;;;1.70;1.37;;;;;;;;;;5074535;28;20453;-87
2022/06/28 01:27:41;;;;;;;2.80;1.57;;;;;;;;;;5074815;28;20438;-88
2022/06/28 01:30:09;;;;;;;2.43;1.57;;;15.40;99.90;;;;;;5074797;28;20450;-87
2022/06/28 01:32:36;;;;;;;3.37;1.60;;;;;;;;;;5074813;28;20452;-88
2022/06/28 01:35:04;;;;;;;1.53;1.40;;;;;;;;;;5071549;28;20496;-87
2022/06/28 01:37:31;;;;;;;1.60;1.50;;;;;;;;;;5074911;28;20802;-87
2022/06/28 01:40:00;;;;;;;2.83;1.60;;;;;;;;;;5073343;28;20450;-87
2022/06/28 01:42:28;;;;;;;1.47;1.37;;;15.30;99.90;;;;;;5074422;28;20485;-88
2022/06/28 01:44:56;;;;;;;1.43;1.30;;;15.20;99.90;;;;;;5071330;28;20917;-87
2022/06/28 01:47:24;;;;;;;2.40;1.83;;;15.20;99.90;;;;;;5074429;28;20446;-87
2022/06/28 01:49:51;;;;;;;2.40;1.60;;;;;;;;;;5074086;28;20445;-87
2022/06/28 01:52:19;;;;;;;1.97;1.40;;;;;;;;;;5074121;28;20988;-87
2022/06/28 01:54:46;;;;;;;1.67;1.57;;;;;;;;;;5073205;28;20442;-87
2022/06/28 01:57:15;;;;;;;4.80;1.30;;;15.20;99.90;;;;;;5069356;28;20814;-88
2022/06/28 01:59:43;;;;;;;2.23;1.70;;;;;;;;;;5074204;28;20442;-87
2022/06/28 02:02:10;;;;;;;8.50;1.83;;;;;;;;;;5070968;28;20453;-87
2022/06/28 02:04:37;;;;;;;1.87;1.60;;;;;;;;;;5074138;28;20453;-88
2022/06/28 02:07:04;;;;;;;1.77;1.50;;;;;;;;;;5073969;28;20472;-87
2022/06/28 02:09:31;;;;;;;2.80;1.60;;;;;;;;;;5072862;28;20453;-87
2022/06/28 02:11:59;;;;;;;3.73;1.73;;;;;;;;;;5073902;28;20445;-87
2022/06/28 02:14:27;;;;;;;1.53;1.33;;;;;;;;;;5073884;28;20894;-88
2022/06/28 02:16:56;;;;;;;1.30;1.20;;;;;;;;;;5073710;28;20445;-87
2022/06/28 02:19:25;;;;;;;2.30;1.40;;;;;;;;;;5071200;28;20860;-87
2022/06/28 02:21:52;;;;;;;2.60;1.50;;;;;;;;;;5073832;28;20460;-87
2022/06/28 02:24:19;;;;;;;2.17;1.50;;;;;;;;;;5069431;28;20485;-88
2022/06/28 02:26:47;;;;;;;2.20;1.40;;;;;;;;;;5069007;28;20441;-87
2022/06/28 02:29:14;;;;;;;1.37;1.27;;;;;;;;;;5073719;28;20442;-87
2022/06/28 02:31:42;;;;;;;1.43;1.33;;;14.80;99.90;;;;;;5073566;28;20445;-87
2022/06/28 02:40:21;;;;;;;3.40;1.63;;;;;;;;;;5073638;28;20814;-87
2022/06/28 02:42:27;;;;;;;4.27;1.50;;;;;;;;;;5055814;28;20871;-87
2022/06/28 02:44:55;;;;;;;2.23;1.30;;;;;;;;;;5070552;28;20462;-88
2022/06/28 02:47:23;;;;;;;3.93;1.40;;;14.50;99.90;;;;;;5073488;28;20456;-87
2022/06/28 02:49:50;;;;;;;1.80;1.70;;;;;;;;;;5073430;28;20449;-88
2022/06/28 02:52:17;;;;;;;5.37;1.60;;;;;;;;;;5073111;28;20818;-88
2022/06/28 02:54:44;;;;;;;1.83;1.33;;;;;;;;;;5072188;28;20453;-88
2022/06/28 02:57:11;;;;;;;2.30;1.40;;;;;;;;;;5073326;28;20455;-88
2022/06/28 02:59:38;;;;;;;2.93;1.90;;;;;;;;;;5073224;28;20453;-88
2022/06/28 03:02:05;;;;;;;3.57;1.63;;;;;;;;;;5072615;28;20445;-87
2022/06/28 03:04:34;;;;;;;1.30;1.20;;;14.30;99.90;;;;;;5073163;28;20595;-87
2022/06/28 03:07:01;;;;;;;1.83;1.50;;;;;;;;;;5073248;28;20473;-87
2022/06/28 03:09:28;;;;;;;2.30;1.53;;;;;;;;;;5066409;28;20450;-87
2022/06/28 03:11:55;;;;;;;1.40;1.30;;;;;;;;;;5073225;28;20461;-88
2022/06/28 03:14:22;;;;;;;3.00;1.53;;;;;;;;;;5070059;28;20453;-88
2022/06/28 03:16:49;;;;;;;2.80;1.37;;;;;;;;;;5073202;28;20457;-88
2022/06/28 03:19:16;;;;;;;3.10;1.43;;;;;;;;;;5070701;28;20453;-87
2022/06/28 03:21:45;;;;;;;2.53;1.40;;;14.10;99.90;;;;;;5074478;28;20441;-88
2022/06/28 03:24:12;;;;;;;1.77;1.50;;;;;;;;;;5072039;28;20493;-87
2022/06/28 03:26:39;;;;;;;1.70;1.60;;;;;;;;;;5070236;28;20449;-88
2022/06/28 03:29:07;;;;;;;1.60;1.50;;;;;;;;;;5073031;28;20434;-88
2022/06/28 03:31:34;;;;;;;1.87;1.67;;;;;;;;;;5067551;28;20465;-87
2022/06/28 03:34:01;;;;;;;1.90;1.57;;;;;;;;;;5072783;28;20460;-88
2022/06/28 03:36:28;;;;;;;3.60;1.67;;;;;;;;;;5072864;28;20457;-88
2022/06/28 03:38:56;;;;;;;3.17;2.00;;;14.30;99.90;;;;;;5071715;28;20438;-87
2022/06/28 03:41:23;;;;;;;1.47;1.37;;;;;;;;;;5072771;28;20442;-87
2022/06/28 03:43:50;;;;;;;2.03;1.83;;;;;;;;;;5072722;28;20497;-88
2022/06/28 03:46:18;;;;;;;6.40;2.10;;;;;;;;;;5072720;28;20779;-88
2022/06/28 03:48:45;;;;;;;2.47;1.80;;;;;;;;;;5072626;28;20446;-88
2022/06/28 03:51:12;;;;;;;1.90;1.70;;;;;;;;;;5072669;28;20485;-87
2022/06/28 03:53:40;;;;;;;2.47;2.10;;;;;;;;;;5071623;28;20985;-88
2022/06/28 03:56:10;;;;;;;2.67;2.17;;;14.60;99.90;;;;;;5069889;28;20839;-88
2022/06/28 03:58:37;;;;;;;2.10;1.90;;;;;;;;;;5072748;28;20461;-88
2022/06/28 04:01:05;;;;;;;2.13;1.93;;;;;;;;;;5072616;28;20450;-87
2022/06/28 04:03:34;;;;;;;1.90;1.70;;;;;;;;;;5072587;28;20493;-88
2022/06/28 04:06:01;;;;;;;2.60;1.80;;;;;;;;;;5072498;28;20461;-88
2022/06/28 04:08:28;;;;;;;1.77;1.67;;;;;;;;;;5071503;28;20457;-88
2022/06/28 04:13:37;;;;;;;2.10;1.80;;;14.80;99.90;;;;;;5075202;28;20487;-88
2022/06/28 04:16:05;;;;;;;2.37;1.93;;;;;;;;;;5076304;28;20445;-87
2022/06/28 04:18:32;;;;;;;3.33;2.07;;;;;;;;;;5076301;28;20442;-88
2022/06/28 04:20:59;;;;;;;3.47;1.80;;;;;;;;;;5076243;28;20433;-88
2022/06/28 04:23:26;;;;;;;3.40;1.93;;;;;;;;;;5074837;28;20472;-87
2022/06/28 04:25:53;;;;;;;3.53;2.60;;;;;;;;;;5072971;28;20460;-88
2022/06/28 04:28:20;;;;;;;3.93;2.30;;;;;;;;;;5075868;28;20445;-87
2022/06/28 04:30:49;;;;;;;2.57;2.37;;;15.00;99.90;;;;;;5076029;28;20825;-88
2022/06/28 04:33:16;;;;;;;4.63;1.70;;;;;;;;;;5071720;28;20453;-88
2022/06/28 04:35:43;;;;;;;2.67;2.47;;;;;;;;;;5075877;28;20454;-88
2022/06/28 04:38:10;;;;;;;2.40;2.17;;;;;;;;;;5074660;28;20446;-88
2022/06/28 04:40:37;;;;;;;4.17;2.50;;;;;;;;;;5070948;28;20464;-88
2022/06/28 04:43:04;;;;;;;2.60;2.10;;;;;;;;;;5075689;28;20805;-88
2022/06/28 04:45:31;;;;;;;3.00;2.60;;;;;;;;;;5075775;28;20450;-88
2022/06/28 04:48:00;;;;;;;3.53;2.77;;;15.40;99.90;;;;;;5075683;28;20787;-88
2022/06/28 04:50:27;;;;;;;3.00;2.67;;;;;;;;;;5075531;28;20446;-88
2022/06/28 04:52:54;;;;;;;3.07;2.73;;;;;;;;;;5074166;28;20484;-88
2022/06/28 04:55:21;;;;;;;5.43;2.77;;;;;;;;;;5075434;28;20448;-87
2022/06/28 04:57:48;;;;;;;6.13;2.80;;;;;;;;;;5075354;28;20945;-87
2022/06/28 05:00:16;;;;;;;2.70;2.50;;;;;;;;;;5070418;28;20453;-87
2022/06/28 05:02:43;;;;;;;3.20;2.90;;;;;;;;;;5069773;28;20457;-87
2022/06/28 05:05:12;;;;;;;3.27;2.67;;;15.60;99.90;;;;;;5075211;28;20494;-87
2022/06/28 05:07:39;;;;;;;5.20;2.67;;;;;;;;;;5075181;28;20530;-87
2022/06/28 05:10:07;;;;;;;5.27;3.10;;;15.10;99.90;;;;;;5069036;28;20457;-88
2022/06/28 05:12:34;;;;;;;2.93;2.70;;;;;;;;;;5075146;28;20450;-88
2022/06/28 05:15:01;;;;;;;3.97;3.33;;;;;;;;;;5072262;28;20855;-87
2022/06/28 05:17:28;;;;;;;4.73;3.80;;;;;;;;;;5075184;28;20449;-87
2022/06/28 05:19:55;;;;;;;4.30;3.90;;;;;;;;;;5075104;28;20445;-86
2022/06/28 05:22:23;;;;;;;4.73;4.23;;;16.00;99.90;;;;;;5074999;28;20952;-87
2022/06/28 05:24:51;;;;;;;6.10;4.47;;;;;;;;;;5073129;28;20515;-88
2022/06/28 05:27:18;;;;;;;8.47;5.73;;;;;;;;;;5075015;28;20457;-88
2022/06/28 05:29:45;;;;;;;5.67;5.07;;;;;;;;;;5074845;28;20458;-88
2022/06/28 05:32:12;;;;;;;6.90;5.67;;;;;;;;;;5071807;28;20450;-87
2022/06/28 05:34:40;;;;;;;6.17;5.57;;;;;;;;;;5074737;28;20948;-87
2022/06/28 05:37:07;;;;;;;7.40;5.90;;;;;;;;;;5074825;28;20438;-88
2022/06/28 05:39:35;;;;;;;7.90;6.83;;;16.10;99.90;;;;;;5073586;28;20525;-87
2022/06/28 05:42:02;;;;;;;6.50;5.90;;;;;;;;;;5074763;28;20452;-87
2022/06/28 05:44:29;;;;;;;8.60;7.50;;;;;;;;;;5074593;28;20512;-87
2022/06/28 05:46:57;;;;;;;8.37;7.33;;;;;;;;;;5075015;28;20442;-87
2022/06/28 05:49:24;;;;;;;7.37;6.50;;;;;;;;;;5075951;28;20449;-88
2022/06/28 05:51:51;;;;;;;9.33;7.70;;;;;;;;;;5074833;28;20489;-88
2022/06/28 05:54:18;;;;;;;8.07;7.27;;;;;;;;;;5073101;28;20965;-86
2022/06/28 05:56:46;;;;;;;7.77;7.07;;;16.70;99.90;;;;;;5074408;28;20444;-88
2022/06/28 05:59:13;;;;;;;9.30;7.40;;;;;;;;;;5074256;28;20442;-87
2022/06/28 06:01:40;;;;;;;9.47;8.57;;;;;;;;;;5071127;28;20806;-87
2022/06/28 06:04:08;;;;;;;9.40;8.37;;;;;;;;;;5074089;28;20496;-88
2022/06/28 06:06:35;;;;;;;8.93;8.13;;;;;;;;;;5073891;28;20828;-87
2022/06/28 06:09:02;;;;;;;8.17;7.47;;;;;;;;;;5072820;28;20449;-88
2022/06/28 06:11:29;;;;;;;14.70;8.30;;;;;;;;;;5073910;28;20465;-87
2022/06/28 06:13:57;;;;;;;8.20;7.50;;;16.90;99.90;;;;;;5074012;28;20445;-86
2022/06/28 06:16:24;;;;;;;9.20;8.30;;;;;;;;;;5071458;28;20462;-86
2022/06/28 06:18:51;;;;;;;10.50;8.97;;;;;;;;;;5073698;28;20434;-85
2022/06/28 06:21:18;;;;;;;9.83;7.77;;;;;;;;;;5073753;28;20786;-86
2022/06/28 06:23:45;;;;;;;8.70;7.20;;;;;;;;;;5072392;28;20478;-86
2022/06/28 06:26:12;;;;;;;8.63;7.73;;;;;;;;;;5073656;28;20453;-86
2022/06/28 06:28:40;;;;;;;8.00;7.10;;;;;;;;;;5070693;28;20454;-86
2022/06/28 06:31:09;;;;;;;9.43;8.43;;;16.80;99.90;;;;;;5073613;28;20445;-86
2022/06/28 06:33:36;;;;;;;8.03;7.33;;;;;;;;;;5073396;28;20446;-86
2022/06/28 06:36:03;;;;;;;7.53;6.83;;;16.90;99.90;;;;;;5072567;28;20956;-85
2022/06/28 06:38:31;;;;;;;6.87;6.27;;;;;;;;;;5072313;28;20468;-86
2022/06/28 06:40:58;;;;;;;6.77;6.17;;;;;;;;;;5073518;28;20445;-86
2022/06/28 06:43:26;;;;;;;7.33;6.47;;;;;;;;;;5073411;28;20438;-86
2022/06/28 06:45:54;;;;;;;8.30;7.20;;;;;;;;;;5073280;28;20502;-85
2022/06/28 06:48:22;;;;;;;7.33;6.73;;;;;;;;;;5073501;28;20445;-85
2022/06/28 06:50:49;;;;;;;7.00;6.40;;;;;;;;;;5070241;28;20441;-85
2022/06/28 06:53:19;;;;;;;6.97;6.37;;;;;;;;;;5072268;28;20446;-83
2022/06/28 06:55:46;;;;;;;6.87;6.27;;;;;;;;;;5073334;28;20450;-86
2022/06/28 06:58:13;;;;;;;8.23;7.50;;;;;;;;;;5070337;28;20454;-85
2022/06/28 07:00:40;;;;;;;7.83;6.47;;;;;;;;;;5070330;28;20444;-86
2022/06/28 07:03:08;;;;;;;7.73;7.03;;;;;;;;;;5073359;28;20503;-86
2022/06/28 07:05:36;;;;;;;8.23;7.43;;;16.80;99.90;;;;;;5070029;28;20546;-86
2022/06/28 07:08:04;;;;;;;8.60;7.87;;;;;;;;;;5071991;28;20939;-86
2022/06/28 07:10:31;;;;;;;7.23;6.63;;;;;;;;;;5073056;28;20457;-87
2022/06/28 07:12:58;;;;;;;8.37;6.20;;;;;;;;;;5073125;28;20453;-89
2022/06/28 07:15:25;;;;;;;7.60;6.90;;;;;;;;;;5073001;28;20446;-85
2022/06/28 07:17:52;;;;;;;7.40;6.77;;;;;;;;;;5073140;28;20449;-86
2022/06/28 07:20:20;;;;;;;6.70;6.00;;;;;;;;;;5073065;28;20448;-86
2022/06/28 07:22:48;;;;;;;7.40;6.70;;;16.70;99.90;;;;;;5072802;28;20796;-86
2022/06/28 07:25:15;;;;;;;8.23;7.33;;;;;;;;;;5072557;28;20489;-86
2022/06/28 07:27:42;;;;;;;8.07;7.23;;;;;;;;;;5072852;28;20948;-86
2022/06/28 07:30:10;;;;;;;6.90;6.20;;;17.10;99.90;;;;;;5073105;28;20783;-85
2022/06/28 07:32:37;;;;;;;10.13;6.80;;;;;;;;;;5072900;28;20441;-86
2022/06/28 07:35:05;;;;;;;7.60;6.90;;;17.20;99.90;;;;;;5072862;28;20445;-86
2022/06/28 07:37:32;;;;;;;8.07;6.60;;;;;;;;;;5072892;28;20448;-87
2022/06/28 07:40:01;;;;;;;7.67;6.87;;;17.50;99.90;;;;;;5071637;28;20433;-87
2022/06/28 07:42:28;;;;;;;6.73;6.13;;;;;;;;;;5072812;28;20434;-86
2022/06/28 07:44:55;;;;;;;7.23;6.63;;;;;;;;;;5070884;28;21019;-87
2022/06/28 07:47:22;;;;;;;6.90;6.30;;;;;;;;;;5074740;28;20464;-83
2022/06/28 07:52:34;;;;;;;8.87;7.97;;;18.50;99.90;;;;;;5076674;28;20555;-85
2022/06/28 07:55:05;;;;;;;7.30;6.57;;;18.30;99.90;;;;;;5075497;28;20487;-86
2022/06/28 07:57:32;;;;;;;8.80;7.77;;;;;;;;;;5076774;28;20434;-86
2022/06/28 07:59:59;;;;;;;6.40;5.80;;;;;;;;;;5076758;28;20449;-89
2022/06/28 08:02:28;;;;;;;6.90;6.30;;;;;;;;;;5076518;28;20441;-86
2022/06/28 08:04:55;;;;;;;13.83;6.77;;;;;;;;;;5076437;28;20496;-90
2022/06/28 08:07:22;;;;;;;8.17;6.40;;;;;;;;;;5076713;28;20452;-88
2022/06/28 08:09:49;;;;;;;6.33;5.83;;;;;;;;;;5075095;28;20948;-83
2022/06/28 08:12:17;;;;;;;10.43;6.80;;;18.60;99.90;;;;;;5076466;28;20457;-82
2022/06/28 08:14:45;;;;;;;7.27;6.53;;;;;;;;;;5076978;28;20468;-83
2022/06/28 08:17:12;;;;;;;6.87;6.27;;;;;;;;;;5077560;28;20452;-85
2022/06/28 08:19:40;;;;;;;7.90;7.13;;;;;;;;;;5077160;28;20437;-85
2022/06/28 08:22:07;;;;;;;6.23;5.73;;;;;;;;;;5076137;28;20473;-86
2022/06/28 08:24:36;;;;;;;7.83;6.10;;;;;;;;;;5074758;28;20477;-86
2022/06/28 08:27:03;;;;;;;6.47;5.87;;;;;;;;;;5076029;28;20929;-85
2022/06/28 08:29:32;;;;;;;6.67;6.07;;;19.50;99.90;;;;;;5075957;28;20460;-86
2022/06/28 08:31:59;;;;;;;6.17;5.67;;;;;;;;;;5076047;28;20810;-86
2022/06/28 08:34:26;;;;;;;9.50;7.20;;;;;;;;;;5075723;28;20454;-86
2022/06/28 08:36:53;;;;;;;7.60;6.97;;;;;;;;;;5070108;28;20441;-86
2022/06/28 08:39:20;;;;;;;5.50;5.00;;;;;;;;;;5074677;28;20450;-87
2022/06/28 08:41:48;;;;;;;6.00;5.50;;;21.50;99.90;;;;;;5075735;28;20446;-86
2022/06/28 08:44:17;;;;;;;5.60;5.10;;;21.40;99.90;;;;;;5075942;28;20442;-86
2022/06/28 08:46:47;;;;;;;5.40;5.00;;;21.40;99.90;;;;;;5055903;28;20455;-87
2022/06/28 08:49:15;;;;;;;6.07;5.60;;;21.10;99.90;;;;;;5058177;28;20454;-90
2022/06/28 08:51:42;;;;;;;5.40;5.00;;;;;;;;;;5073851;28;20565;-87
2022/06/28 08:54:10;;;;;;;5.63;5.13;;;;;;;;;;5055057;28;20505;-90
2022/06/28 08:56:39;;;;;;;5.43;5.03;;;;;;;;;;5052867;28;20554;-89
2022/06/28 08:59:07;;;;;;;6.70;5.97;;;20.50;99.90;;;;;;5054800;28;20451;-89
2022/06/28 09:01:34;;;;;;;5.90;5.40;;;;;;;;;;5051960;28;20926;-87
2022/06/28 09:04:05;;;;;;;6.07;5.43;;;21.40;99.90;;;;;;5055573;28;20501;-87
2022/06/28 09:06:32;;;;;;;5.50;5.10;;;;;;;;;;5055239;28;20517;-87
2022/06/28 09:08:59;;;;;;;5.60;5.20;;;;;;;;;;5054126;28;20455;-87
2022/06/28 09:11:26;;;;;;;5.03;4.63;;;;;;;;;;5052143;28;20455;-87
2022/06/28 09:13:53;;;;;;;4.60;4.20;;;;;;;;;;5055359;28;20446;-88
2022/06/28 09:16:21;;;;;;;4.87;4.47;;;;;;;;;;5052341;28;20504;-89
2022/06/28 09:18:50;;;;;;;4.77;4.47;;;22.20;99.90;;;;;;5055043;28;20439;-88
2022/06/28 09:21:20;;;;;;;4.50;3.37;;;22.70;99.90;;;;;;5055151;28;20447;-88
2022/06/28 09:23:48;;;;;;;4.60;4.20;;;22.80;99.90;;;;;;5065934;28;20496;-86
2022/06/28 09:26:17;;;;;;;3.93;3.63;;;23.00;99.90;;;;;;5074720;28;20839;-85
2022/06/28 09:28:47;;;;;;;4.50;4.10;;;23.10;99.90;;;;;;5074307;28;20450;-86
2022/06/28 09:31:24;;;;;;;6.80;3.23;;;23.30;99.90;;;;;;5076399;28;20442;-90
2022/06/28 09:34:05;;;;;;;3.00;2.80;;;23.00;99.90;;;;;;5076041;28;20442;-89
2022/06/28 09:36:34;;;;;;;3.23;2.93;;;22.90;99.90;;;;;;5079241;28;20446;-93
2022/06/28 09:39:12;;;;;;;4.10;3.10;;;22.70;99.90;;;;;;5080291;28;20445;-93
2022/06/28 09:41:39;;;;;;;3.00;2.80;;;;;;;;;;5072775;28;20437;-89
2022/06/28 09:44:07;;;;;;;3.07;2.87;;;;;;;;;;5075817;28;20446;-92
2022/06/28 09:46:34;;;;;;;3.67;2.53;;;;;;;;;;5075326;28;21007;-92
2022/06/28 09:49:04;;;;;;;2.63;2.43;;;22.60;99.90;;;;;;5076134;28;20442;-95
2022/06/28 09:51:34;;;;;;;3.00;2.80;;;22.70;99.90;;;;;;5076760;28;20481;-87
2022/06/28 09:54:03;;;;;;;2.90;2.50;;;23.90;99.90;;;;;;5075657;28;20441;-92
2022/06/28 09:56:34;;;;;;;3.63;2.57;;;23.70;99.90;;;;;;5075984;28;20452;-94
2022/06/28 09:59:01;;;;;;;2.53;2.33;;;;;;;;;;5075295;28;20434;-90
2022/06/28 10:01:29;;;;;;;2.87;2.67;;;;;;;;;;5074858;28;20434;-92
2022/06/28 10:03:56;;;;;;;2.87;2.63;;;;;;;;;;5075245;28;20462;-92
2022/06/28 10:06:23;;;;;;;3.10;2.90;;;;;;;;;;5075524;28;20474;-92
2022/06/28 10:08:51;;;;;;;2.90;2.70;;;23.10;99.90;;;;;;5074271;28;20442;-89
2022/06/28 10:11:19;;;;;;;2.57;2.40;;;22.60;99.90;;;;;;5074719;28;20457;-91
2022/06/28 10:16:46;;;;;;;3.47;2.80;;;23.10;99.90;;;;;;5074860;28;20480;-90
2022/06/28 10:19:16;;;;;;;3.00;2.10;;;24.10;99.90;;;;;;5074514;28;21042;-90
2022/06/28 10:21:48;;;;;;;2.20;2.10;;;23.80;99.90;;;;;;5074877;28;20463;-90
2022/06/28 10:24:16;;;;;;;3.60;3.10;;;24.70;99.90;;;;;;5073605;28;20441;-87
2022/06/28 10:26:45;;;;;;;3.13;2.93;;;25.10;97.70;;;;;;5074961;28;20489;-94
2022/06/28 10:29:12;;;;;;;2.80;2.60;;;;;;;;;;5078337;28;20426;-94
2022/06/28 10:31:40;;;;;;;2.50;2.17;;;;;;;;;;5076087;28;20463;-91
2022/06/28 10:34:10;;;;;;;2.40;2.20;;;24.60;96.40;;;;;;5075756;28;20441;-93
2022/06/28 10:36:48;;;;;;;2.40;2.20;;;25.10;99.40;;;;;;5076759;28;20442;-91
2022/06/28 10:39:28;;;;;;;2.63;2.43;;;25.50;98.30;;;;;;5074204;28;20789;-93
2022/06/28 10:42:07;;;;;;;2.33;1.93;;;25.70;97.40;;;;;;5076411;28;20490;-87
2022/06/28 10:50:15;;;;;;;2.63;2.43;;;24.80;98.70;;;;;;5675750;22;20558;-88
2022/06/28 10:52:44;;;;;;;2.00;1.90;;;;;;;;;;5053305;28;20470;-90
2022/06/28 10:56:07;;;;;;;4.47;2.67;;;24.80;99.90;;;;;;5052719;28;20423;-87
2022/06/28 10:59:27;;;;;;;3.00;2.33;;;24.70;99.90;;;;;;5049713;28;20430;-91
2022/06/28 11:04:31;;;;;;;3.23;2.57;;;24.70;99.90;;;;;;5772067;22;20515;-89
2022/06/28 11:09:54;;;;;;;225.10;117.93;;;;;;;;;;5075550;28;20512;-89
2022/06/28 11:12:36;;;;;;;3.00;2.10;;;25.20;99.90;;;;;;5074547;28;20434;-89
2022/06/28 11:15:04;;;;;;;2.40;2.20;;;24.50;99.90;;;;;;5073442;28;20501;-88
2022/06/28 11:17:33;;;;;;;205.63;100.50;;;23.70;99.90;;;;;;5074791;28;20809;-88
2022/06/28 11:20:03;;;;;;;2.03;1.80;;;24.20;99.90;;;;;;5074642;28;20465;-94
2022/06/28 11:22:32;;;;;;;3.17;2.40;;;24.70;99.90;;;;;;5076988;28;20450;-92
2022/06/28 11:25:01;;;;;;;3.73;1.97;;;24.40;98.50;;;;;;5079681;28;20457;-91
2022/06/28 11:27:31;;;;;;;4.10;2.30;;;;;;;;;;5079476;28;20453;-89
2022/06/28 11:30:06;;;;;;;2.63;2.43;;;24.00;99.90;;;;;;5079724;28;20491;-88
2022/06/28 11:32:35;;;;;;;2.93;2.60;;;24.10;99.90;;;;;;5075063;28;20783;-91
2022/06/28 11:35:04;;;;;;;2.20;2.10;;;24.30;99.90;;;;;;5078792;28;20460;-92
2022/06/28 11:37:34;;;;;;;2.50;2.30;;;23.90;99.90;;;;;;5078837;28;20932;-90
2022/06/28 11:40:03;;;;;;;2.60;2.30;;;23.90;99.90;;;;;;5077310;28;20503;-88
2022/06/28 11:42:31;;;;;;;2.43;1.67;;;;;;;;;;5078694;28;20823;-90
2022/06/28 11:44:58;;;;;;;2.40;2.20;;;;;;;;;;5080579;28;20446;-89
2022/06/28 11:47:26;;;;;;;2.60;1.80;;;;;;;;;;5080541;28;20441;-88
2022/06/28 11:50:13;;;;;;;2.40;2.20;;;23.40;99.90;;;;;;5085134;28;20445;-90
2022/06/28 11:52:51;;;;;;;2.80;2.13;;;;;;;;;;5079617;28;20456;-94
2022/06/28 11:55:37;;;;;;;1.57;1.47;;;23.20;99.30;;;;;;5082258;28;20451;-93
2022/06/28 11:58:12;;;;;;;2.10;1.90;;;;;;;;;;5147142;22;20567;-92
2022/06/28 12:00:59;;;;;;;2.60;2.17;;;;;;;;;;5069449;28;20418;-95
2022/06/28 12:06:12;;;;;;;4.43;2.50;;;;;;;;;;5103002;22;20483;-92
2022/06/28 12:08:49;;;;;;;1.83;1.73;;;;;;;;;;5090438;28;20453;-95
2022/06/28 12:11:48;;;;;;;1.97;1.87;;;;;;;;;;5086882;28;20952;-94
2022/06/28 12:24:03;;;;;;;8.70;3.67;;;;;;;;;;5161035;22;20444;-93
2022/06/28 12:26:52;;;;;;;2.13;1.93;;;;;;;;;;5120141;28;20480;-93
2022/06/28 12:29:23;;;;;;;3.50;1.83;;;;;;;;;;5101692;28;20777;-93
2022/06/28 12:31:54;;;;;;;3.30;1.57;;;;;;;;;;5118558;28;20496;-92
2022/06/28 12:34:21;;;;;;;2.70;1.40;;;22.50;99.90;;;;;;5121215;28;20448;-94
2022/06/28 12:36:53;;;;;;;1.60;1.50;;;;;;;;;;5122996;28;20931;-93
2022/06/28 12:39:21;;;;;;;2.10;1.50;;;;;;;;;;5120144;28;20480;-93
2022/06/28 12:41:50;;;;;;;2.93;1.47;;;;;;;;;;5117132;28;20478;-93
2022/06/28 12:44:18;;;;;;;1.50;1.40;;;;;;;;;;5118905;28;20494;-92
2022/06/28 12:46:51;;;;;;;2.87;1.80;;;;;;;;;;5120868;28;20448;-95
2022/06/28 12:52:01;;;;;;;1.63;1.50;;;;;;;;;;5115436;28;20938;-94
2022/06/28 12:54:29;;;;;;;1.57;1.47;;;;;;;;;;5118139;28;20470;-92
2022/06/28 12:56:57;;;;;;;3.00;1.50;;;;;;;;;;5118030;28;20832;-93
2022/06/28 12:59:34;;;;;;;1.70;1.60;;;;;;;;;;5118540;28;20488;-92
2022/06/28 13:02:01;;;;;;;1.80;1.70;;;;;;;;;;5117111;28;20521;-91
2022/06/28 13:04:33;;;;;;;2.00;1.47;;;22.40;99.90;;;;;;5117222;28;20458;-94
2022/06/28 13:07:01;;;;;;;1.47;1.33;;;;;;;;;;5119232;28;20472;-92
2022/06/28 13:09:30;;;;;;;2.63;2.17;;;;;;;;;;5119803;27;20452;-92
2022/06/28 13:12:14;;;;;;;1.50;1.40;;;;;;;;;;5118451;28;20448;-92
2022/06/28 13:14:44;;;;;;;1.50;1.40;;;;;;;;;;5118568;28;20541;-90
2022/06/28 13:17:11;;;;;;;2.13;1.90;;;;;;;;;;5120119;28;20452;-91
2022/06/28 13:19:44;;;;;;;1.67;1.57;;;;;;;;;;5127459;28;20472;-93
2022/06/28 13:22:12;;;;;;;1.37;1.27;;;;;;;;;;5134146;28;20443;-93
2022/06/28 13:24:45;;;;;;;1.40;1.30;;;;;;;;;;5125847;28;20472;-93
2022/06/28 13:27:27;;;;;;;6.23;3.03;;;;;;;;;;5251705;22;20479;-95
2022/06/28 13:38:52;;;;;;;3.50;1.40;;;;;;;;;;5121131;28;20475;-92
2022/06/28 13:41:19;;;;;;;1.57;1.47;;;;;;;;;;5119229;28;20440;-92
2022/06/28 13:43:49;;;;;;;1.50;1.40;;;;;;;;;;5115432;28;20451;-94
2022/06/28 13:46:16;;;;;;;1.53;1.40;;;;;;;;;;5119210;28;20474;-93
2022/06/28 13:48:43;;;;;;;1.53;1.20;;;;;;;;;;5121357;28;20487;-93
2022/06/28 13:51:11;;;;;;;2.00;1.50;;;;;;;;;;5119347;28;20451;-93
2022/06/28 13:53:38;;;;;;;1.50;1.40;;;;;;;;;;5118392;28;20455;-93
2022/06/28 13:56:06;;;;;;;2.63;1.50;;;;;;;;;;5120970;28;20450;-91
2022/06/28 13:58:33;;;;;;;1.90;1.80;;;;;;;;;;5120829;28;20475;-93
2022/06/28 14:01:03;;;;;;;1.73;1.20;;;;;;;;;;5123840;28;20448;-93
2022/06/28 14:03:30;;;;;;;2.50;1.30;;;;;;;;;;5122249;28;20829;-91
2022/06/28 14:05:58;;;;;;;2.70;1.70;;;;;;;;;;5122341;28;20470;-92
2022/06/28 14:08:25;;;;;;;1.23;1.13;;;;;;;;;;5115209;28;20527;-92
2022/06/28 14:10:53;;;;;;;2.20;1.40;;;;;;;;;;5118502;28;20517;-92
2022/06/28 14:13:22;;;;;;;1.23;1.13;;;;;;;;;;5119096;28;20450;-93
2022/06/28 14:15:49;;;;;;;2.33;1.60;;;;;;;;;;5118489;28;20455;-94
2022/06/28 14:18:18;;;;;;;2.87;1.40;;;;;;;;;;5118645;28;20474;-92
2022/06/28 14:20:45;;;;;;;1.60;1.50;;;;;;;;;;5119820;28;20440;-93
2022/06/28 14:23:13;;;;;;;2.60;1.40;;;;;;;;;;5118821;28;20978;-93
2022/06/28 14:25:41;;;;;;;1.50;1.37;;;;;;;;;;5115382;28;20455;-94
2022/06/28 14:30:49;;;;;;;1.57;1.33;;;;;;;;;;5119692;28;21000;-94
2022/06/28 14:33:18;;;;;;;2.10;1.57;;;;;;;;;;5118981;28;20836;-94
2022/06/28 14:35:47;;;;;;;1.67;1.57;;;;;;;;;;5122127;28;20467;-93
2022/06/28 14:38:15;;;;;;;1.57;1.47;;;;;;;;;;5120021;28;20444;-93
2022/06/28 14:40:42;;;;;;;3.17;1.30;;;;;;;;;;5117664;28;20542;-93
2022/06/28 14:43:10;;;;;;;1.60;1.50;;;;;;;;;;5115500;28;20452;-92
2022/06/28 14:45:39;;;;;;;1.40;1.30;;;;;;;;;;5096485;28;20980;-91
2022/06/28 14:48:09;;;;;;;6.20;1.53;;;;;;;;;;5094910;28;20558;-91
2022/06/28 14:50:41;;;;;;;3.90;1.50;;;;;;;;;;5099470;28;20449;-92
2022/06/28 14:53:12;;;;;;;2.20;1.30;;;;;;;;;;5094499;28;20471;-92
2022/06/28 14:55:39;;;;;;;2.03;1.50;;;;;;;;;;5098514;28;20449;-93
2022/06/28 14:58:08;;;;;;;3.17;1.20;;;;;;;;;;5103684;28;20449;-92
2022/06/28 15:00:35;;;;;;;2.37;1.53;;;;;;;;;;5103850;28;20507;-94
2022/06/28 15:03:10;;;;;;;2.47;1.50;;;;;;;;;;5099604;28;20461;-92
2022/06/28 15:05:46;;;;;;;1.33;1.23;;;;;;;;;;5103110;28;20845;-92
2022/06/28 15:08:13;;;;;;;2.60;1.40;;;;;;;;;;5098880;28;20920;-92
2022/06/28 15:10:46;;;;;;;1.63;1.40;;;;;;;;;;5111700;28;20452;-93